Barry Silverton — WDI2338 — position and weather

sailwx.info

Track history (hours):
 
Tides and Currents Weather Stations Pressure Air Temp Water Temp Dewpoint Dewpoint Depression Visibility Wind Speed Wind Dir Waves Ship Positions

Barry Silverton

Owner: Harley Marine Services, Inc, Seattle, WA. More information available from US FCC via Universal Licensing System and Coast Guard Vessel Documentation Center.

Last reported at 2018-Jun-20 23:44 UTC. Time now 2018-Jun-21 02:43 UTC.
Position N 39°04' W 074°35'.

Length 178 m; draft 7 m.

Type: . MMSI: 367677130.

Date/timePositionNaut miles runAvg speedWind from/ knotsBaromVisibWave heightAir tempDewpointWater temp
2018-Jun-20 23:44N 39°04' W 074°35'2 9.7
2018-Jun-20 23:31N 39°06' W 074°33'6 9.8
2018-Jun-20 22:56N 39°10' W 074°28'4 9.4
2018-Jun-20 22:30N 39°13' W 074°24'15 9.7
2018-Jun-20 20:55N 39°25' W 074°12'410.0
2018-Jun-20 20:29N 39°29' W 074°09'510.0
2018-Jun-20 20:00N 39°33' W 074°06'510.1
2018-Jun-20 19:30N 39°38' W 074°03'510.1
2018-Jun-20 18:59N 39°42' W 074°01'5 9.9
2018-Jun-20 18:30N 39°47' W 073°58'5 9.8
2018-Jun-20 17:59N 39°52' W 073°58'5 9.9
2018-Jun-20 17:29N 39°57' W 073°57'33 9.9
2018-Jun-20 14:12N 40°29' W 073°56'210.6
2018-Jun-20 14:00N 40°30' W 073°58'510.4
2018-Jun-20 13:30N 40°34' W 074°02'510.0
2018-Jun-20 12:59N 40°39' W 074°05'0 0.1
2018-Jun-20 12:26N 40°39' W 074°05'0 0.0
2018-Jun-20 11:59N 40°39' W 074°05'0 0.0
2018-Jun-20 11:29N 40°39' W 074°05'0 0.0
2018-Jun-20 10:59N 40°39' W 074°05'0 0.0
2018-Jun-20 10:29N 40°39' W 074°05'0 0.0
2018-Jun-20 09:59N 40°39' W 074°05'0 0.0
2018-Jun-20 09:29N 40°39' W 074°05'0 0.0
2018-Jun-20 08:59N 40°39' W 074°05'0 0.0
2018-Jun-20 08:29N 40°39' W 074°05'0 0.0
2018-Jun-20 07:59N 40°39' W 074°05'0 0.0
2018-Jun-20 07:29N 40°39' W 074°05'0 0.0
2018-Jun-20 06:59N 40°39' W 074°05'0 0.0
2018-Jun-20 06:29N 40°39' W 074°05'0 0.0
2018-Jun-20 05:56N 40°39' W 074°05'0 0.0
2018-Jun-20 05:26N 40°39' W 074°05'0 0.0
2018-Jun-20 04:32N 40°39' W 074°05'0 0.0
2018-Jun-20 04:08N 40°39' W 074°05'0 0.0
2018-Jun-20 03:50N 40°39' W 074°05'0 0.0
2018-Jun-20 03:26N 40°39' W 074°05'0 0.0
2018-Jun-20 02:50N 40°39' W 074°05'0 0.0
2018-Jun-20 01:23N 40°39' W 074°05'0 0.0
2018-Jun-20 00:56N 40°39' W 074°05'0 0.0
2018-Jun-20 00:23N 40°39' W 074°05'0 0.0
2018-Jun-19 23:56N 40°39' W 074°05'0 0.0
2018-Jun-19 23:26N 40°39' W 074°05'0 0.0
2018-Jun-19 22:56N 40°39' W 074°05'0 0.0
2018-Jun-19 22:29N 40°39' W 074°05'0 0.0
2018-Jun-19 21:56N 40°39' W 074°05'0 0.0
2018-Jun-19 21:29N 40°39' W 074°05'0 0.0
2018-Jun-19 20:59N 40°39' W 074°05'0 0.0
2018-Jun-19 20:26N 40°39' W 074°05'0 0.0
2018-Jun-19 19:53N 40°39' W 074°05'0 0.0
2018-Jun-19 19:29N 40°39' W 074°05'0 0.0
2018-Jun-19 18:59N 40°39' W 074°05'0 0.0
2018-Jun-19 18:26N 40°39' W 074°05'0 0.0
2018-Jun-19 17:59N 40°39' W 074°05'0 0.0
2018-Jun-19 17:29N 40°39' W 074°05'0 0.0
2018-Jun-19 16:59N 40°39' W 074°05'0 0.0
2018-Jun-19 16:20N 40°39' W 074°05'0 0.0
2018-Jun-19 15:44N 40°39' W 074°05'0 0.0
2018-Jun-19 15:17N 40°39' W 074°05'0 0.0
2018-Jun-19 14:50N 40°39' W 074°05'0 0.0
2018-Jun-19 14:29N 40°39' W 074°05'0 0.0
2018-Jun-19 13:59N 40°39' W 074°05'0 0.0
2018-Jun-19 13:14N 40°39' W 074°05'0 0.0
2018-Jun-19 12:56N 40°39' W 074°05'0 0.0
2018-Jun-19 12:29N 40°39' W 074°05'0 0.0
2018-Jun-19 11:59N 40°39' W 074°05'0 0.0
2018-Jun-19 11:29N 40°39' W 074°05'0 0.0
2018-Jun-19 10:59N 40°39' W 074°05'0 0.0
2018-Jun-19 10:29N 40°39' W 074°05'0 0.0
2018-Jun-19 09:59N 40°39' W 074°05'0 0.0
2018-Jun-19 09:26N 40°39' W 074°05'0 0.0
2018-Jun-19 08:56N 40°39' W 074°05'0 0.0
2018-Jun-19 08:29N 40°39' W 074°05'0 0.0
2018-Jun-19 07:59N 40°39' W 074°05'0 0.0
2018-Jun-19 07:29N 40°39' W 074°05'0 0.0
2018-Jun-19 06:59N 40°39' W 074°05'0 0.0
2018-Jun-19 06:29N 40°39' W 074°05'0 0.0
2018-Jun-19 05:59N 40°39' W 074°05'0 0.0
2018-Jun-19 05:29N 40°39' W 074°05'0 0.2
2018-Jun-19 04:57N 40°39' W 074°05'2 4.2
2018-Jun-19 04:28N 40°38' W 074°03'0 0.3
2018-Jun-19 03:58N 40°38' W 074°03'0 0.3
2018-Jun-19 03:28N 40°38' W 074°03'0 0.2
2018-Jun-19 02:58N 40°38' W 074°03'0 0.2
2018-Jun-19 02:28N 40°38' W 074°04'0 0.5
2018-Jun-19 01:58N 40°38' W 074°03'1 1.6
2018-Jun-19 01:30N 40°39' W 074°04'4 7.2
2018-Jun-19 01:00N 40°39' W 074°09'3 1.4
2018-Jun-18 22:27N 40°36' W 074°12'2 0.3
2018-Jun-18 16:29N 40°38' W 074°12'2 0.2
2018-Jun-18 04:44N 40°36' W 074°12'2 6.5
2018-Jun-18 04:30N 40°38' W 074°12'2 3.9
2018-Jun-18 03:58N 40°38' W 074°09'0 0.1
2018-Jun-18 03:28N 40°38' W 074°09'0 0.0
2018-Jun-18 02:58N 40°38' W 074°09'0 0.0
2018-Jun-18 02:28N 40°38' W 074°09'0 0.0
2018-Jun-18 01:58N 40°38' W 074°09'0 0.0
2018-Jun-18 01:28N 40°38' W 074°09'0 0.0
2018-Jun-18 00:58N 40°38' W 074°09'0 0.0
2018-Jun-18 00:28N 40°38' W 074°09'0 0.0
2018-Jun-17 23:52N 40°38' W 074°09'0 0.0
2018-Jun-17 23:28N 40°38' W 074°09'0 0.0
2018-Jun-17 22:58N 40°38' W 074°09'0 0.0
2018-Jun-17 22:28N 40°38' W 074°09'0 0.0
2018-Jun-17 21:58N 40°38' W 074°09'0 0.0
2018-Jun-17 21:28N 40°38' W 074°09'0 0.0
2018-Jun-17 20:58N 40°38' W 074°09'0 0.0
2018-Jun-17 20:19N 40°38' W 074°09'0 0.0
2018-Jun-17 13:13N 40°38' W 074°09'0 0.0
2018-Jun-17 12:52N 40°38' W 074°09'0 0.0
2018-Jun-17 11:43N 40°38' W 074°09'0 0.0
2018-Jun-17 11:19N 40°38' W 074°09'0 0.0
2018-Jun-17 10:46N 40°38' W 074°09'0 0.0
2018-Jun-17 10:13N 40°38' W 074°09'0 0.0
2018-Jun-17 09:25N 40°38' W 074°09'0 0.0
2018-Jun-17 08:58N 40°38' W 074°09'0 0.0
2018-Jun-17 08:28N 40°38' W 074°09'0 0.0
2018-Jun-17 07:58N 40°38' W 074°09'0 0.0
2018-Jun-17 07:28N 40°38' W 074°09'0 0.0
2018-Jun-17 06:58N 40°38' W 074°09'0 0.0
2018-Jun-17 06:28N 40°38' W 074°09'0 0.0
2018-Jun-17 05:58N 40°38' W 074°09'0 0.0
2018-Jun-17 05:28N 40°38' W 074°09'0 0.0
2018-Jun-17 04:58N 40°38' W 074°09'0 0.0
2018-Jun-17 04:28N 40°38' W 074°09'0 0.0
2018-Jun-17 03:58N 40°38' W 074°09'0 0.0
2018-Jun-17 03:28N 40°38' W 074°09'0 0.0
2018-Jun-17 02:58N 40°38' W 074°09'0 0.0
2018-Jun-17 02:25N 40°38' W 074°09'0 0.0
2018-Jun-17 01:58N 40°38' W 074°09'0 0.0
2018-Jun-17 01:28N 40°38' W 074°09'0 0.0
2018-Jun-17 00:58N 40°38' W 074°09'0 0.0
2018-Jun-17 00:28N 40°38' W 074°09'0 0.0
2018-Jun-16 23:58N 40°38' W 074°09'0 0.0
2018-Jun-16 23:25N 40°38' W 074°09'0 0.0
2018-Jun-16 22:58N 40°38' W 074°09'0 0.0
2018-Jun-16 22:28N 40°38' W 074°09'0 0.0
2018-Jun-16 21:58N 40°38' W 074°09'0 0.0
2018-Jun-16 21:28N 40°38' W 074°09'0 0.0
2018-Jun-16 20:58N 40°38' W 074°09'0 0.0
2018-Jun-16 20:28N 40°38' W 074°09'0 0.0
2018-Jun-16 19:58N 40°38' W 074°09'0 0.0
2018-Jun-16 19:28N 40°38' W 074°09'0 0.0
2018-Jun-16 18:58N 40°38' W 074°09'0 0.0
2018-Jun-16 18:28N 40°38' W 074°09'0 0.0
2018-Jun-16 18:00N 40°38' W 074°09'2 3.3
2018-Jun-16 17:29N 40°39' W 074°07'0 0.0
2018-Jun-16 16:59N 40°39' W 074°07'0 0.1
2018-Jun-16 16:30N 40°39' W 074°07'2 3.2
2018-Jun-16 15:59N 40°38' W 074°09'3 5.8
2018-Jun-16 15:30N 40°39' W 074°06'2 3.5
2018-Jun-16 14:58N 40°38' W 074°04'0 0.8
2018-Jun-16 14:30N 40°38' W 074°04'3 6.2
2018-Jun-16 14:01N 40°41' W 074°02'4 8.1
2018-Jun-16 13:30N 40°45' W 074°01'3 0.4
2018-Jun-16 05:22N 40°48' W 073°59'0 0.0
2018-Jun-16 04:58N 40°48' W 073°59'0 0.0
2018-Jun-16 02:04N 40°48' W 073°59'0 0.0
2018-Jun-16 01:34N 40°48' W 073°59'0 0.0
2018-Jun-16 01:22N 40°48' W 073°59'0 0.0
2018-Jun-16 00:58N 40°48' W 073°59'0 0.0
2018-Jun-16 00:28N 40°48' W 073°59'0 0.0
2018-Jun-15 17:34N 40°48' W 073°59'0 0.5
2018-Jun-15 17:22N 40°48' W 073°59'0 0.2
2018-Jun-15 16:58N 40°48' W 073°59'0 0.1
2018-Jun-15 16:16N 40°48' W 073°59'0 0.1
2018-Jun-15 15:46N 40°48' W 073°59'0 0.0
2018-Jun-15 15:28N 40°48' W 073°59'0 0.0
2018-Jun-15 14:58N 40°48' W 073°59'0 0.0
2018-Jun-15 14:28N 40°48' W 073°59'0 0.0
2018-Jun-15 13:58N 40°48' W 073°59'0 0.2
2018-Jun-15 13:22N 40°48' W 073°59'0 0.1
2018-Jun-15 12:43N 40°48' W 073°59'0 0.1
2018-Jun-15 10:46N 40°48' W 073°59'0 0.0
2018-Jun-15 10:25N 40°48' W 073°59'0 0.0
2018-Jun-15 05:25N 40°48' W 073°59'0 0.3
2018-Jun-15 04:58N 40°48' W 073°59'0 0.1
2018-Jun-15 04:07N 40°48' W 073°59'0 0.1
2018-Jun-15 03:58N 40°48' W 073°59'0 0.0
2018-Jun-15 03:16N 40°48' W 073°59'0 0.0
2018-Jun-15 02:46N 40°48' W 073°59'0 0.0
2018-Jun-15 02:28N 40°48' W 073°59'0 0.0
2018-Jun-15 01:58N 40°48' W 073°59'0 0.0
2018-Jun-15 01:28N 40°48' W 073°59'0 0.0
2018-Jun-15 00:58N 40°48' W 073°59'0 0.2
2018-Jun-15 00:04N 40°48' W 073°59'0 0.1
2018-Jun-14 23:04N 40°48' W 073°59'0 0.0
2018-Jun-14 22:55N 40°48' W 073°59'0 0.1
2018-Jun-14 21:46N 40°48' W 073°59'0 0.0
2018-Jun-14 17:35N 40°48' W 073°59'0 3.0
2018-Jun-14 17:28N 40°48' W 073°59'4 7.9
2018-Jun-14 17:00N 40°44' W 074°01'4 8.7
2018-Jun-14 16:30N 40°40' W 074°03'4 7.7
2018-Jun-14 16:00N 40°36' W 074°02'1 1.5
2018-Jun-14 15:30N 40°36' W 074°01'0 0.0
2018-Jun-14 14:54N 40°36' W 074°01'0 0.0
2018-Jun-14 14:30N 40°36' W 074°01'0 0.0
2018-Jun-14 13:51N 40°36' W 074°01'0 0.0
2018-Jun-14 13:24N 40°36' W 074°01'0 0.1
2018-Jun-14 12:51N 40°36' W 074°01'0 0.0
2018-Jun-14 12:24N 40°36' W 074°01'0 0.1
2018-Jun-14 11:57N 40°36' W 074°01'0 0.0
2018-Jun-14 08:42N 40°36' W 074°01'0 0.1
2018-Jun-14 08:15N 40°36' W 074°01'0 0.0
2018-Jun-14 08:00N 40°36' W 074°01'0 0.0
2018-Jun-14 07:30N 40°36' W 074°01'0 0.0
2018-Jun-14 07:00N 40°36' W 074°01'0 0.0
2018-Jun-14 06:30N 40°36' W 074°01'0 0.0
2018-Jun-14 05:45N 40°36' W 074°01'0 0.0
2018-Jun-14 05:30N 40°36' W 074°01'0 0.1
2018-Jun-14 04:54N 40°36' W 074°01'0 0.0
2018-Jun-14 04:12N 40°36' W 074°01'0 0.0
2018-Jun-14 03:45N 40°36' W 074°01'0 0.1
2018-Jun-14 03:15N 40°36' W 074°01'0 0.0
2018-Jun-14 02:03N 40°36' W 074°01'0 0.1
2018-Jun-14 01:45N 40°36' W 074°01'0 0.0
2018-Jun-13 22:18N 40°36' W 074°01'0 0.0
2018-Jun-13 21:57N 40°36' W 074°01'0 0.1
2018-Jun-13 21:30N 40°36' W 074°01'0 0.0
2018-Jun-13 21:00N 40°36' W 074°01'0 0.0
2018-Jun-13 20:30N 40°36' W 074°01'0 0.1
2018-Jun-13 20:00N 40°36' W 074°01'0 0.0
2018-Jun-13 17:15N 40°36' W 074°01'0 0.1
2018-Jun-13 15:51N 40°36' W 074°01'0 0.0
2018-Jun-13 13:57N 40°36' W 074°01'0 0.1
2018-Jun-13 12:30N 40°36' W 074°01'0 0.0
2018-Jun-13 11:57N 40°36' W 074°01'0 0.0
2018-Jun-13 11:21N 40°36' W 074°01'0 0.0
2018-Jun-13 10:57N 40°36' W 074°01'0 0.0
2018-Jun-13 10:21N 40°36' W 074°01'0 0.0
2018-Jun-13 09:57N 40°36' W 074°01'0 0.0
2018-Jun-13 08:54N 40°36' W 074°01'0 0.0
2018-Jun-13 08:30N 40°36' W 074°01'0 0.0
2018-Jun-13 07:57N 40°36' W 074°01'0 0.1
2018-Jun-13 07:22N 40°36' W 074°01'0 0.1
2018-Jun-13 06:47N 40°36' W 074°01'0 0.1
2018-Jun-13 06:26N 40°36' W 074°01'0 0.0
2018-Jun-13 06:00N 40°36' W 074°01'0 0.0
2018-Jun-13 05:30N 40°36' W 074°01'0 0.1
2018-Jun-13 04:47N 40°36' W 074°01'0 0.0
2018-Jun-13 04:30N 40°36' W 074°01'0 0.1
2018-Jun-13 03:54N 40°36' W 074°01'0 0.0
2018-Jun-13 03:20N 40°36' W 074°01'0 0.0
2018-Jun-13 02:59N 40°36' W 074°01'3 6.7
2018-Jun-13 02:30N 40°38' W 074°04'2 4.8
2018-Jun-13 01:59N 40°39' W 074°07'0 0.0
2018-Jun-13 01:30N 40°39' W 074°07'0 0.0
2018-Jun-13 00:57N 40°39' W 074°07'0 0.0
2018-Jun-13 00:30N 40°39' W 074°07'2 4.5
2018-Jun-12 23:59N 40°39' W 074°10'0 0.0
2018-Jun-12 23:30N 40°39' W 074°10'0 0.0
2018-Jun-12 22:58N 40°39' W 074°10'0 0.0
2018-Jun-12 22:30N 40°39' W 074°10'0 0.0
2018-Jun-12 22:00N 40°39' W 074°10'0 0.0
2018-Jun-12 21:28N 40°39' W 074°10'0 0.0
2018-Jun-12 21:00N 40°39' W 074°10'0 0.0
2018-Jun-12 20:30N 40°39' W 074°10'0 0.0
2018-Jun-12 20:00N 40°39' W 074°10'2 4.3
2018-Jun-12 19:30N 40°39' W 074°07'0 0.0
2018-Jun-12 19:00N 40°39' W 074°07'0 0.0
2018-Jun-12 18:30N 40°39' W 074°07'2 3.4
2018-Jun-12 18:00N 40°39' W 074°05'4 7.6
2018-Jun-12 17:26N 40°36' W 074°01'0 0.2
2018-Jun-12 16:59N 40°36' W 074°01'0 0.0
2018-Jun-12 16:30N 40°36' W 074°01'0 0.1
2018-Jun-12 15:58N 40°36' W 074°01'0 0.0
2018-Jun-12 15:30N 40°36' W 074°01'0 0.0
2018-Jun-12 14:58N 40°36' W 074°01'0 0.0
2018-Jun-12 14:28N 40°36' W 074°01'0 0.1
2018-Jun-12 14:00N 40°36' W 074°01'0 0.0
2018-Jun-12 13:30N 40°36' W 074°01'0 0.0
2018-Jun-12 13:00N 40°36' W 074°01'0 0.1
2018-Jun-12 12:29N 40°36' W 074°01'0 0.1
2018-Jun-12 12:00N 40°36' W 074°01'0 0.0
2018-Jun-12 11:30N 40°36' W 074°01'0 0.0
2018-Jun-12 10:49N 40°36' W 074°01'0 0.1
2018-Jun-12 10:29N 40°36' W 074°01'0 0.0
2018-Jun-12 09:56N 40°36' W 074°01'0 0.0
2018-Jun-12 09:28N 40°36' W 074°01'0 0.0
2018-Jun-12 07:29N 40°36' W 074°01'0 0.1
2018-Jun-12 06:27N 40°36' W 074°01'0 0.2
2018-Jun-12 05:54N 40°36' W 074°01'0 0.0
2018-Jun-12 05:30N 40°36' W 074°01'0 0.0
2018-Jun-12 05:01N 40°36' W 074°01'0 0.1
2018-Jun-12 04:17N 40°36' W 074°01'0 0.1
2018-Jun-12 03:55N 40°36' W 074°01'0 0.1
2018-Jun-12 03:27N 40°36' W 074°01'0 0.0
2018-Jun-12 02:54N 40°36' W 074°01'0 0.0
2018-Jun-12 02:29N 40°36' W 074°01'0 0.1
2018-Jun-12 00:38N 40°36' W 074°01'0 0.1
2018-Jun-12 00:14N 40°36' W 074°01'0 0.0
2018-Jun-12 00:00N 40°36' W 074°01'0 0.0
2018-Jun-11 22:46N 40°36' W 074°01'0 0.0
2018-Jun-11 22:29N 40°36' W 074°01'0 0.0
2018-Jun-11 21:10N 40°36' W 074°01'0 0.0
2018-Jun-11 20:38N 40°36' W 074°01'0 0.0
2018-Jun-11 16:14N 40°36' W 074°01'0 0.3
2018-Jun-11 15:55N 40°36' W 074°01'0 0.0
2018-Jun-11 15:21N 40°36' W 074°01'0 0.0
2018-Jun-11 14:56N 40°36' W 074°01'0 0.0
2018-Jun-11 14:28N 40°36' W 074°01'0 0.0
2018-Jun-11 13:51N 40°36' W 074°01'0 0.0
2018-Jun-11 13:28N 40°36' W 074°01'0 0.1
2018-Jun-11 12:58N 40°36' W 074°01'0 0.1
2018-Jun-11 10:14N 40°36' W 074°01'0 0.0
2018-Jun-11 09:10N 40°36' W 074°01'0 0.0
2018-Jun-11 08:52N 40°36' W 074°01'0 0.0
2018-Jun-11 08:28N 40°36' W 074°01'0 0.0
2018-Jun-11 07:55N 40°36' W 074°01'0 0.0
2018-Jun-11 07:26N 40°36' W 074°01'0 0.1
2018-Jun-11 06:52N 40°36' W 074°01'0 0.2
2018-Jun-11 06:30N 40°36' W 074°01'0 0.0
2018-Jun-11 06:00N 40°36' W 074°01'0 0.0
2018-Jun-11 05:30N 40°36' W 074°01'0 0.1
2018-Jun-11 04:58N 40°36' W 074°01'0 0.1
2018-Jun-11 04:30N 40°36' W 074°01'0 0.0
2018-Jun-11 04:00N 40°36' W 074°01'0 0.0
2018-Jun-11 03:30N 40°36' W 074°01'0 0.0
2018-Jun-11 03:00N 40°36' W 074°01'0 0.0
2018-Jun-11 02:30N 40°36' W 074°01'0 0.0
2018-Jun-11 02:00N 40°36' W 074°01'0 0.0
2018-Jun-11 01:24N 40°36' W 074°01'0 0.0
2018-Jun-11 01:00N 40°36' W 074°01'0 0.0
2018-Jun-11 00:30N 40°36' W 074°01'0 0.1
2018-Jun-11 00:00N 40°36' W 074°01'  
Track history (hours):
 
Tides and Currents Weather Stations Pressure Air Temp Water Temp Dewpoint Dewpoint Depression Visibility Wind Speed Wind Dir Waves Ship Positions

Barry Silverton

Owner: Harley Marine Services, Inc, Seattle, WA. More information available from US FCC via Universal Licensing System and Coast Guard Vessel Documentation Center.

Last reported at 2018-Jun-20 23:44 UTC. Time now 2018-Jun-21 02:43 UTC.
Position N 39°04' W 074°35'.

Length 178 m; draft 7 m.

Type: . MMSI: 367677130.

Date/timePositionNaut miles runAvg speedWind from/ knotsBaromVisibWave heightAir tempDewpointWater temp
2018-Jun-20 23:44N 39°04' W 074°35'2 9.7
2018-Jun-20 23:31N 39°06' W 074°33'6 9.8
2018-Jun-20 22:56N 39°10' W 074°28'4 9.4
2018-Jun-20 22:30N 39°13' W 074°24'15 9.7
2018-Jun-20 20:55N 39°25' W 074°12'410.0
2018-Jun-20 20:29N 39°29' W 074°09'510.0
2018-Jun-20 20:00N 39°33' W 074°06'510.1
2018-Jun-20 19:30N 39°38' W 074°03'510.1
2018-Jun-20 18:59N 39°42' W 074°01'5 9.9
2018-Jun-20 18:30N 39°47' W 073°58'5 9.8
2018-Jun-20 17:59N 39°52' W 073°58'5 9.9
2018-Jun-20 17:29N 39°57' W 073°57'33 9.9
2018-Jun-20 14:12N 40°29' W 073°56'210.6
2018-Jun-20 14:00N 40°30' W 073°58'510.4
2018-Jun-20 13:30N 40°34' W 074°02'510.0
2018-Jun-20 12:59N 40°39' W 074°05'0 0.1
2018-Jun-20 12:26N 40°39' W 074°05'0 0.0
2018-Jun-20 11:59N 40°39' W 074°05'0 0.0
2018-Jun-20 11:29N 40°39' W 074°05'0 0.0
2018-Jun-20 10:59N 40°39' W 074°05'0 0.0
2018-Jun-20 10:29N 40°39' W 074°05'0 0.0
2018-Jun-20 09:59N 40°39' W 074°05'0 0.0
2018-Jun-20 09:29N 40°39' W 074°05'0 0.0
2018-Jun-20 08:59N 40°39' W 074°05'0 0.0
2018-Jun-20 08:29N 40°39' W 074°05'0 0.0
2018-Jun-20 07:59N 40°39' W 074°05'0 0.0
2018-Jun-20 07:29N 40°39' W 074°05'0 0.0
2018-Jun-20 06:59N 40°39' W 074°05'0 0.0
2018-Jun-20 06:29N 40°39' W 074°05'0 0.0
2018-Jun-20 05:56N 40°39' W 074°05'0 0.0
2018-Jun-20 05:26N 40°39' W 074°05'0 0.0
2018-Jun-20 04:32N 40°39' W 074°05'0 0.0
2018-Jun-20 04:08N 40°39' W 074°05'0 0.0
2018-Jun-20 03:50N 40°39' W 074°05'0 0.0
2018-Jun-20 03:26N 40°39' W 074°05'0 0.0
2018-Jun-20 02:50N 40°39' W 074°05'0 0.0
2018-Jun-20 01:23N 40°39' W 074°05'0 0.0
2018-Jun-20 00:56N 40°39' W 074°05'0 0.0
2018-Jun-20 00:23N 40°39' W 074°05'0 0.0
2018-Jun-19 23:56N 40°39' W 074°05'0 0.0
2018-Jun-19 23:26N 40°39' W 074°05'0 0.0
2018-Jun-19 22:56N 40°39' W 074°05'0 0.0
2018-Jun-19 22:29N 40°39' W 074°05'0 0.0
2018-Jun-19 21:56N 40°39' W 074°05'0 0.0
2018-Jun-19 21:29N 40°39' W 074°05'0 0.0
2018-Jun-19 20:59N 40°39' W 074°05'0 0.0
2018-Jun-19 20:26N 40°39' W 074°05'0 0.0
2018-Jun-19 19:53N 40°39' W 074°05'0 0.0
2018-Jun-19 19:29N 40°39' W 074°05'0 0.0
2018-Jun-19 18:59N 40°39' W 074°05'0 0.0
2018-Jun-19 18:26N 40°39' W 074°05'0 0.0
2018-Jun-19 17:59N 40°39' W 074°05'0 0.0
2018-Jun-19 17:29N 40°39' W 074°05'0 0.0
2018-Jun-19 16:59N 40°39' W 074°05'0 0.0
2018-Jun-19 16:20N 40°39' W 074°05'0 0.0
2018-Jun-19 15:44N 40°39' W 074°05'0 0.0
2018-Jun-19 15:17N 40°39' W 074°05'0 0.0
2018-Jun-19 14:50N 40°39' W 074°05'0 0.0
2018-Jun-19 14:29N 40°39' W 074°05'0 0.0
2018-Jun-19 13:59N 40°39' W 074°05'0 0.0
2018-Jun-19 13:14N 40°39' W 074°05'0 0.0
2018-Jun-19 12:56N 40°39' W 074°05'0 0.0
2018-Jun-19 12:29N 40°39' W 074°05'0 0.0
2018-Jun-19 11:59N 40°39' W 074°05'0 0.0
2018-Jun-19 11:29N 40°39' W 074°05'0 0.0
2018-Jun-19 10:59N 40°39' W 074°05'0 0.0
2018-Jun-19 10:29N 40°39' W 074°05'0 0.0
2018-Jun-19 09:59N 40°39' W 074°05'0 0.0
2018-Jun-19 09:26N 40°39' W 074°05'0 0.0
2018-Jun-19 08:56N 40°39' W 074°05'0 0.0
2018-Jun-19 08:29N 40°39' W 074°05'0 0.0
2018-Jun-19 07:59N 40°39' W 074°05'0 0.0
2018-Jun-19 07:29N 40°39' W 074°05'0 0.0
2018-Jun-19 06:59N 40°39' W 074°05'0 0.0
2018-Jun-19 06:29N 40°39' W 074°05'0 0.0
2018-Jun-19 05:59N 40°39' W 074°05'0 0.0
2018-Jun-19 05:29N 40°39' W 074°05'0 0.2
2018-Jun-19 04:57N 40°39' W 074°05'2 4.2
2018-Jun-19 04:28N 40°38' W 074°03'0 0.3
2018-Jun-19 03:58N 40°38' W 074°03'0 0.3
2018-Jun-19 03:28N 40°38' W 074°03'0 0.2
2018-Jun-19 02:58N 40°38' W 074°03'0 0.2
2018-Jun-19 02:28N 40°38' W 074°04'0 0.5
2018-Jun-19 01:58N 40°38' W 074°03'1 1.6
2018-Jun-19 01:30N 40°39' W 074°04'4 7.2
2018-Jun-19 01:00N 40°39' W 074°09'3 1.4
2018-Jun-18 22:27N 40°36' W 074°12'2 0.3
2018-Jun-18 16:29N 40°38' W 074°12'2 0.2
2018-Jun-18 04:44N 40°36' W 074°12'2 6.5
2018-Jun-18 04:30N 40°38' W 074°12'2 3.9
2018-Jun-18 03:58N 40°38' W 074°09'0 0.1
2018-Jun-18 03:28N 40°38' W 074°09'0 0.0
2018-Jun-18 02:58N 40°38' W 074°09'0 0.0
2018-Jun-18 02:28N 40°38' W 074°09'0 0.0
2018-Jun-18 01:58N 40°38' W 074°09'0 0.0
2018-Jun-18 01:28N 40°38' W 074°09'0 0.0
2018-Jun-18 00:58N 40°38' W 074°09'0 0.0
2018-Jun-18 00:28N 40°38' W 074°09'0 0.0
2018-Jun-17 23:52N 40°38' W 074°09'0 0.0
2018-Jun-17 23:28N 40°38' W 074°09'0 0.0
2018-Jun-17 22:58N 40°38' W 074°09'0 0.0
2018-Jun-17 22:28N 40°38' W 074°09'0 0.0
2018-Jun-17 21:58N 40°38' W 074°09'0 0.0
2018-Jun-17 21:28N 40°38' W 074°09'0 0.0
2018-Jun-17 20:58N 40°38' W 074°09'0 0.0
2018-Jun-17 20:19N 40°38' W 074°09'0 0.0
2018-Jun-17 13:13N 40°38' W 074°09'0 0.0
2018-Jun-17 12:52N 40°38' W 074°09'0 0.0
2018-Jun-17 11:43N 40°38' W 074°09'0 0.0
2018-Jun-17 11:19N 40°38' W 074°09'0 0.0
2018-Jun-17 10:46N 40°38' W 074°09'0 0.0
2018-Jun-17 10:13N 40°38' W 074°09'0 0.0
2018-Jun-17 09:25N 40°38' W 074°09'0 0.0
2018-Jun-17 08:58N 40°38' W 074°09'0 0.0
2018-Jun-17 08:28N 40°38' W 074°09'0 0.0
2018-Jun-17 07:58N 40°38' W 074°09'0 0.0
2018-Jun-17 07:28N 40°38' W 074°09'0 0.0
2018-Jun-17 06:58N 40°38' W 074°09'0 0.0
2018-Jun-17 06:28N 40°38' W 074°09'0 0.0
2018-Jun-17 05:58N 40°38' W 074°09'0 0.0
2018-Jun-17 05:28N 40°38' W 074°09'0 0.0
2018-Jun-17 04:58N 40°38' W 074°09'0 0.0
2018-Jun-17 04:28N 40°38' W 074°09'0 0.0
2018-Jun-17 03:58N 40°38' W 074°09'0 0.0
2018-Jun-17 03:28N 40°38' W 074°09'0 0.0
2018-Jun-17 02:58N 40°38' W 074°09'0 0.0
2018-Jun-17 02:25N 40°38' W 074°09'0 0.0
2018-Jun-17 01:58N 40°38' W 074°09'0 0.0
2018-Jun-17 01:28N 40°38' W 074°09'0 0.0
2018-Jun-17 00:58N 40°38' W 074°09'0 0.0
2018-Jun-17 00:28N 40°38' W 074°09'0 0.0
2018-Jun-16 23:58N 40°38' W 074°09'0 0.0
2018-Jun-16 23:25N 40°38' W 074°09'0 0.0
2018-Jun-16 22:58N 40°38' W 074°09'0 0.0
2018-Jun-16 22:28N 40°38' W 074°09'0 0.0
2018-Jun-16 21:58N 40°38' W 074°09'0 0.0
2018-Jun-16 21:28N 40°38' W 074°09'0 0.0
2018-Jun-16 20:58N 40°38' W 074°09'0 0.0
2018-Jun-16 20:28N 40°38' W 074°09'0 0.0
2018-Jun-16 19:58N 40°38' W 074°09'0 0.0
2018-Jun-16 19:28N 40°38' W 074°09'0 0.0
2018-Jun-16 18:58N 40°38' W 074°09'0 0.0
2018-Jun-16 18:28N 40°38' W 074°09'0 0.0
2018-Jun-16 18:00N 40°38' W 074°09'2 3.3
2018-Jun-16 17:29N 40°39' W 074°07'0 0.0
2018-Jun-16 16:59N 40°39' W 074°07'0 0.1
2018-Jun-16 16:30N 40°39' W 074°07'2 3.2
2018-Jun-16 15:59N 40°38' W 074°09'3 5.8
2018-Jun-16 15:30N 40°39' W 074°06'2 3.5
2018-Jun-16 14:58N 40°38' W 074°04'0 0.8
2018-Jun-16 14:30N 40°38' W 074°04'3 6.2
2018-Jun-16 14:01N 40°41' W 074°02'4 8.1
2018-Jun-16 13:30N 40°45' W 074°01'3 0.4
2018-Jun-16 05:22N 40°48' W 073°59'0 0.0
2018-Jun-16 04:58N 40°48' W 073°59'0 0.0
2018-Jun-16 02:04N 40°48' W 073°59'0 0.0
2018-Jun-16 01:34N 40°48' W 073°59'0 0.0
2018-Jun-16 01:22N 40°48' W 073°59'0 0.0
2018-Jun-16 00:58N 40°48' W 073°59'0 0.0
2018-Jun-16 00:28N 40°48' W 073°59'0 0.0
2018-Jun-15 17:34N 40°48' W 073°59'0 0.5
2018-Jun-15 17:22N 40°48' W 073°59'0 0.2
2018-Jun-15 16:58N 40°48' W 073°59'0 0.1
2018-Jun-15 16:16N 40°48' W 073°59'0 0.1
2018-Jun-15 15:46N 40°48' W 073°59'0 0.0
2018-Jun-15 15:28N 40°48' W 073°59'0 0.0
2018-Jun-15 14:58N 40°48' W 073°59'0 0.0
2018-Jun-15 14:28N 40°48' W 073°59'0 0.0
2018-Jun-15 13:58N 40°48' W 073°59'0 0.2
2018-Jun-15 13:22N 40°48' W 073°59'0 0.1
2018-Jun-15 12:43N 40°48' W 073°59'0 0.1
2018-Jun-15 10:46N 40°48' W 073°59'0 0.0
2018-Jun-15 10:25N 40°48' W 073°59'0 0.0
2018-Jun-15 05:25N 40°48' W 073°59'0 0.3
2018-Jun-15 04:58N 40°48' W 073°59'0 0.1
2018-Jun-15 04:07N 40°48' W 073°59'0 0.1
2018-Jun-15 03:58N 40°48' W 073°59'0 0.0
2018-Jun-15 03:16N 40°48' W 073°59'0 0.0
2018-Jun-15 02:46N 40°48' W 073°59'0 0.0
2018-Jun-15 02:28N 40°48' W 073°59'0 0.0
2018-Jun-15 01:58N 40°48' W 073°59'0 0.0
2018-Jun-15 01:28N 40°48' W 073°59'0 0.0
2018-Jun-15 00:58N 40°48' W 073°59'0 0.2
2018-Jun-15 00:04N 40°48' W 073°59'0 0.1
2018-Jun-14 23:04N 40°48' W 073°59'0 0.0
2018-Jun-14 22:55N 40°48' W 073°59'0 0.1
2018-Jun-14 21:46N 40°48' W 073°59'0 0.0
2018-Jun-14 17:35N 40°48' W 073°59'0 3.0
2018-Jun-14 17:28N 40°48' W 073°59'4 7.9
2018-Jun-14 17:00N 40°44' W 074°01'4 8.7
2018-Jun-14 16:30N 40°40' W 074°03'4 7.7
2018-Jun-14 16:00N 40°36' W 074°02'1 1.5
2018-Jun-14 15:30N 40°36' W 074°01'0 0.0
2018-Jun-14 14:54N 40°36' W 074°01'0 0.0
2018-Jun-14 14:30N 40°36' W 074°01'0 0.0
2018-Jun-14 13:51N 40°36' W 074°01'0 0.0
2018-Jun-14 13:24N 40°36' W 074°01'0 0.1
2018-Jun-14 12:51N 40°36' W 074°01'0 0.0
2018-Jun-14 12:24N 40°36' W 074°01'0 0.1
2018-Jun-14 11:57N 40°36' W 074°01'0 0.0
2018-Jun-14 08:42N 40°36' W 074°01'0 0.1
2018-Jun-14 08:15N 40°36' W 074°01'0 0.0
2018-Jun-14 08:00N 40°36' W 074°01'0 0.0
2018-Jun-14 07:30N 40°36' W 074°01'0 0.0
2018-Jun-14 07:00N 40°36' W 074°01'0 0.0
2018-Jun-14 06:30N 40°36' W 074°01'0 0.0
2018-Jun-14 05:45N 40°36' W 074°01'0 0.0
2018-Jun-14 05:30N 40°36' W 074°01'0 0.1
2018-Jun-14 04:54N 40°36' W 074°01'0 0.0
2018-Jun-14 04:12N 40°36' W 074°01'0 0.0
2018-Jun-14 03:45N 40°36' W 074°01'0 0.1
2018-Jun-14 03:15N 40°36' W 074°01'0 0.0
2018-Jun-14 02:03N 40°36' W 074°01'0 0.1
2018-Jun-14 01:45N 40°36' W 074°01'0 0.0
2018-Jun-13 22:18N 40°36' W 074°01'0 0.0
2018-Jun-13 21:57N 40°36' W 074°01'0 0.1
2018-Jun-13 21:30N 40°36' W 074°01'0 0.0
2018-Jun-13 21:00N 40°36' W 074°01'0 0.0
2018-Jun-13 20:30N 40°36' W 074°01'0 0.1
2018-Jun-13 20:00N 40°36' W 074°01'0 0.0
2018-Jun-13 17:15N 40°36' W 074°01'0 0.1
2018-Jun-13 15:51N 40°36' W 074°01'0 0.0
2018-Jun-13 13:57N 40°36' W 074°01'0 0.1
2018-Jun-13 12:30N 40°36' W 074°01'0 0.0
2018-Jun-13 11:57N 40°36' W 074°01'0 0.0
2018-Jun-13 11:21N 40°36' W 074°01'0 0.0
2018-Jun-13 10:57N 40°36' W 074°01'0 0.0
2018-Jun-13 10:21N 40°36' W 074°01'0 0.0
2018-Jun-13 09:57N 40°36' W 074°01'0 0.0
2018-Jun-13 08:54N 40°36' W 074°01'0 0.0
2018-Jun-13 08:30N 40°36' W 074°01'0 0.0
2018-Jun-13 07:57N 40°36' W 074°01'0 0.1
2018-Jun-13 07:22N 40°36' W 074°01'0 0.1
2018-Jun-13 06:47N 40°36' W 074°01'0 0.1
2018-Jun-13 06:26N 40°36' W 074°01'0 0.0
2018-Jun-13 06:00N 40°36' W 074°01'0 0.0
2018-Jun-13 05:30N 40°36' W 074°01'0 0.1
2018-Jun-13 04:47N 40°36' W 074°01'0 0.0
2018-Jun-13 04:30N 40°36' W 074°01'0 0.1
2018-Jun-13 03:54N 40°36' W 074°01'0 0.0
2018-Jun-13 03:20N 40°36' W 074°01'0 0.0
2018-Jun-13 02:59N 40°36' W 074°01'3 6.7
2018-Jun-13 02:30N 40°38' W 074°04'2 4.8
2018-Jun-13 01:59N 40°39' W 074°07'0 0.0
2018-Jun-13 01:30N 40°39' W 074°07'0 0.0
2018-Jun-13 00:57N 40°39' W 074°07'0 0.0
2018-Jun-13 00:30N 40°39' W 074°07'2 4.5
2018-Jun-12 23:59N 40°39' W 074°10'0 0.0
2018-Jun-12 23:30N 40°39' W 074°10'0 0.0
2018-Jun-12 22:58N 40°39' W 074°10'0 0.0
2018-Jun-12 22:30N 40°39' W 074°10'0 0.0
2018-Jun-12 22:00N 40°39' W 074°10'0 0.0
2018-Jun-12 21:28N 40°39' W 074°10'0 0.0
2018-Jun-12 21:00N 40°39' W 074°10'0 0.0
2018-Jun-12 20:30N 40°39' W 074°10'0 0.0
2018-Jun-12 20:00N 40°39' W 074°10'2 4.3
2018-Jun-12 19:30N 40°39' W 074°07'0 0.0
2018-Jun-12 19:00N 40°39' W 074°07'0 0.0
2018-Jun-12 18:30N 40°39' W 074°07'2 3.4
2018-Jun-12 18:00N 40°39' W 074°05'4 7.6
2018-Jun-12 17:26N 40°36' W 074°01'0 0.2
2018-Jun-12 16:59N 40°36' W 074°01'0 0.0
2018-Jun-12 16:30N 40°36' W 074°01'0 0.1
2018-Jun-12 15:58N 40°36' W 074°01'0 0.0
2018-Jun-12 15:30N 40°36' W 074°01'0 0.0
2018-Jun-12 14:58N 40°36' W 074°01'0 0.0
2018-Jun-12 14:28N 40°36' W 074°01'0 0.1
2018-Jun-12 14:00N 40°36' W 074°01'0 0.0
2018-Jun-12 13:30N 40°36' W 074°01'0 0.0
2018-Jun-12 13:00N 40°36' W 074°01'0 0.1
2018-Jun-12 12:29N 40°36' W 074°01'0 0.1
2018-Jun-12 12:00N 40°36' W 074°01'0 0.0
2018-Jun-12 11:30N 40°36' W 074°01'0 0.0
2018-Jun-12 10:49N 40°36' W 074°01'0 0.1
2018-Jun-12 10:29N 40°36' W 074°01'0 0.0
2018-Jun-12 09:56N 40°36' W 074°01'0 0.0
2018-Jun-12 09:28N 40°36' W 074°01'0 0.0
2018-Jun-12 07:29N 40°36' W 074°01'0 0.1
2018-Jun-12 06:27N 40°36' W 074°01'0 0.2
2018-Jun-12 05:54N 40°36' W 074°01'0 0.0
2018-Jun-12 05:30N 40°36' W 074°01'0 0.0
2018-Jun-12 05:01N 40°36' W 074°01'0 0.1
2018-Jun-12 04:17N 40°36' W 074°01'0 0.1
2018-Jun-12 03:55N 40°36' W 074°01'0 0.1
2018-Jun-12 03:27N 40°36' W 074°01'0 0.0
2018-Jun-12 02:54N 40°36' W 074°01'0 0.0
2018-Jun-12 02:29N 40°36' W 074°01'0 0.1
2018-Jun-12 00:38N 40°36' W 074°01'0 0.1
2018-Jun-12 00:14N 40°36' W 074°01'0 0.0
2018-Jun-12 00:00N 40°36' W 074°01'0 0.0
2018-Jun-11 22:46N 40°36' W 074°01'0 0.0
2018-Jun-11 22:29N 40°36' W 074°01'0 0.0
2018-Jun-11 21:10N 40°36' W 074°01'0 0.0
2018-Jun-11 20:38N 40°36' W 074°01'0 0.0
2018-Jun-11 16:14N 40°36' W 074°01'0 0.3
2018-Jun-11 15:55N 40°36' W 074°01'0 0.0
2018-Jun-11 15:21N 40°36' W 074°01'0 0.0
2018-Jun-11 14:56N 40°36' W 074°01'0 0.0
2018-Jun-11 14:28N 40°36' W 074°01'0 0.0
2018-Jun-11 13:51N 40°36' W 074°01'0 0.0
2018-Jun-11 13:28N 40°36' W 074°01'0 0.1
2018-Jun-11 12:58N 40°36' W 074°01'0 0.1
2018-Jun-11 10:14N 40°36' W 074°01'0 0.0
2018-Jun-11 09:10N 40°36' W 074°01'0 0.0
2018-Jun-11 08:52N 40°36' W 074°01'0 0.0
2018-Jun-11 08:28N 40°36' W 074°01'0 0.0
2018-Jun-11 07:55N 40°36' W 074°01'0 0.0
2018-Jun-11 07:26N 40°36' W 074°01'0 0.1
2018-Jun-11 06:52N 40°36' W 074°01'0 0.2
2018-Jun-11 06:30N 40°36' W 074°01'0 0.0
2018-Jun-11 06:00N 40°36' W 074°01'0 0.0
2018-Jun-11 05:30N 40°36' W 074°01'0 0.1
2018-Jun-11 04:58N 40°36' W 074°01'0 0.1
2018-Jun-11 04:30N 40°36' W 074°01'0 0.0
2018-Jun-11 04:00N 40°36' W 074°01'0 0.0
2018-Jun-11 03:30N 40°36' W 074°01'0 0.0
2018-Jun-11 03:00N 40°36' W 074°01'0 0.0
2018-Jun-11 02:30N 40°36' W 074°01'0 0.0
2018-Jun-11 02:00N 40°36' W 074°01'0 0.0
2018-Jun-11 01:24N 40°36' W 074°01'0 0.0
2018-Jun-11 01:00N 40°36' W 074°01'0 0.0
2018-Jun-11 00:30N 40°36' W 074°01'0 0.1
2018-Jun-11 00:00N 40°36' W 074°01'  

Dump ship's entire track history